Time,TemperatureF,DewpointF,PressureIn,WindDirection,WindDirectionDegrees,WindSpeedMPH,WindSpeedGustMPH,Humidity,HourlyPrecipIn,Conditions,Clouds,dailyrainin,SoftwareType,DateUTC
2013-05-09 00:03:00,74.0,61.0,30.11,West,260,1.0,0.0,65,0.00,,,0.00,,2013-05-09 04:03:00,
2013-05-09 00:12:00,74.0,61.0,30.11,West,260,1.0,0.0,65,0.00,,,0.00,,2013-05-09 04:12:00,
2013-05-09 00:23:00,74.0,61.0,30.10,WNW,283,1.0,0.0,64,0.00,,,0.00,,2013-05-09 04:23:00,
2013-05-09 00:33:00,73.0,63.0,30.10,SSW,205,0.0,0.0,70,0.00,,,0.00,,2013-05-09 04:33:00,
2013-05-09 00:43:00,73.0,63.0,30.10,SSW,205,0.0,0.0,70,0.00,,,0.00,,2013-05-09 04:43:00,
2013-05-09 00:52:00,72.0,62.0,30.10,SSW,205,0.0,0.0,71,0.00,,,0.00,,2013-05-09 04:52:00,
2013-05-09 01:02:00,72.0,62.0,30.10,SSW,205,0.0,0.0,70,0.00,,,0.00,,2013-05-09 05:02:00,
2013-05-09 01:12:00,72.0,62.0,30.10,SSW,205,0.0,0.0,70,0.00,,,0.00,,2013-05-09 05:12:00,
2013-05-09 01:22:00,72.0,61.0,30.09,WSW,252,0.0,0.0,68,0.00,,,0.00,,2013-05-09 05:22:00,
2013-05-09 01:32:00,71.0,61.0,30.09,West,281,2.0,2.0,70,0.00,,,0.00,,2013-05-09 05:32:00,
2013-05-09 01:42:00,71.0,61.0,30.09,West,267,1.0,1.0,71,0.00,,,0.00,,2013-05-09 05:42:00,
2013-05-09 01:52:00,71.0,61.0,30.09,West,267,1.0,1.0,71,0.00,,,0.00,,2013-05-09 05:52:00,
2013-05-09 02:02:00,71.0,62.0,30.08,NW,307,2.0,2.0,72,0.00,,,0.00,,2013-05-09 06:02:00,
2013-05-09 02:12:00,71.0,62.0,30.08,NW,307,2.0,2.0,72,0.00,,,0.00,,2013-05-09 06:12:00,
2013-05-09 02:21:00,71.0,63.0,30.07,WNW,283,2.0,2.0,75,0.00,,,0.00,,2013-05-09 06:21:00,
2013-05-09 02:32:00,70.0,62.0,30.07,WNW,302,1.0,2.0,77,0.00,,,0.00,,2013-05-09 06:32:00,
2013-05-09 02:42:00,70.0,62.0,30.07,WNW,302,1.0,2.0,77,0.00,,,0.00,,2013-05-09 06:42:00,
2013-05-09 02:52:00,70.0,63.0,30.07,West,276,0.0,0.0,79,0.00,,,0.00,,2013-05-09 06:52:00,
2013-05-09 03:01:00,69.0,63.0,30.06,NW,311,1.0,1.0,81,0.00,,,0.00,,2013-05-09 07:01:00,
2013-05-09 03:12:00,69.0,63.0,30.06,NNW,336,0.0,0.0,82,0.00,,,0.00,,2013-05-09 07:12:00,
2013-05-09 03:21:00,69.0,63.0,30.06,NNW,336,0.0,0.0,82,0.00,,,0.00,,2013-05-09 07:21:00,
2013-05-09 03:32:00,69.0,64.0,30.06,NW,322,1.0,0.0,83,0.00,,,0.00,,2013-05-09 07:32:00,
2013-05-09 03:42:00,69.0,64.0,30.06,NW,322,1.0,0.0,83,0.00,,,0.00,,2013-05-09 07:42:00,
2013-05-09 03:52:00,69.0,63.0,30.06,NNW,343,1.0,0.0,82,0.00,,,0.00,,2013-05-09 07:52:00,
2013-05-09 04:02:00,69.0,63.0,30.06,NW,326,0.0,0.0,82,0.00,,,0.00,,2013-05-09 08:02:00,
2013-05-09 04:11:00,69.0,63.0,30.06,NW,326,0.0,0.0,82,0.00,,,0.00,,2013-05-09 08:11:00,
2013-05-09 04:21:00,69.0,63.0,30.06,North,349,0.0,0.0,81,0.00,,,0.00,,2013-05-09 08:21:00,
2013-05-09 04:32:00,68.0,62.0,30.06,North,349,0.0,0.0,82,0.00,,,0.00,,2013-05-09 08:32:00,
2013-05-09 04:42:00,68.0,62.0,30.05,NNW,328,1.0,1.0,82,0.00,,,0.00,,2013-05-09 08:42:00,
2013-05-09 04:52:00,68.0,62.0,30.05,NNW,328,1.0,1.0,82,0.00,,,0.00,,2013-05-09 08:52:00,
2013-05-09 05:02:00,68.0,62.0,30.05,NNW,343,0.0,0.0,82,0.00,,,0.00,,2013-05-09 09:02:00,
2013-05-09 05:11:00,68.0,62.0,30.05,NNW,343,0.0,0.0,82,0.00,,,0.00,,2013-05-09 09:11:00,
2013-05-09 05:21:00,68.0,62.0,30.05,NNW,343,0.0,0.0,82,0.00,,,0.00,,2013-05-09 09:21:00,
2013-05-09 05:32:00,68.0,63.0,30.05,NNW,343,0.0,0.0,83,0.00,,,0.00,,2013-05-09 09:32:00,
2013-05-09 05:43:00,67.0,62.0,30.05,NNW,347,0.0,0.0,83,0.00,,,0.00,,2013-05-09 09:43:00,
2013-05-09 05:53:00,67.0,62.0,30.05,NNW,347,0.0,0.0,83,0.00,,,0.00,,2013-05-09 09:53:00,
2013-05-09 06:02:00,67.0,62.0,30.05,NNW,347,0.0,0.0,85,0.00,,,0.00,,2013-05-09 10:02:00,
2013-05-09 06:12:00,67.0,62.0,30.05,NW,304,1.0,0.0,85,0.00,,,0.00,,2013-05-09 10:12:00,
2013-05-09 06:22:00,67.0,62.0,30.05,NW,304,1.0,0.0,85,0.00,,,0.00,,2013-05-09 10:22:00,
2013-05-09 06:33:00,67.0,62.0,30.06,NNW,332,0.0,0.0,85,0.00,,,0.00,,2013-05-09 10:33:00,
2013-05-09 06:42:00,67.0,62.0,30.06,NNW,332,0.0,0.0,85,0.00,,,0.00,,2013-05-09 10:42:00,
2013-05-09 06:52:00,67.0,62.0,30.06,WNW,294,0.0,0.0,85,0.00,,,0.00,,2013-05-09 10:52:00,
2013-05-09 07:02:00,66.0,61.0,30.07,WNW,294,0.0,0.0,85,0.00,,,0.00,,2013-05-09 11:02:00,
2013-05-09 07:12:00,67.0,62.0,30.07,WNW,294,0.0,0.0,85,0.00,,,0.00,,2013-05-09 11:12:00,
2013-05-09 07:22:00,67.0,62.0,30.07,WNW,294,0.0,0.0,85,0.00,,,0.00,,2013-05-09 11:22:00,
2013-05-09 07:32:00,67.0,62.0,30.08,WNW,293,1.0,1.0,85,0.00,,,0.00,,2013-05-09 11:32:00,
2013-05-09 07:42:00,67.0,62.0,30.08,WNW,293,1.0,1.0,85,0.00,,,0.00,,2013-05-09 11:42:00,
2013-05-09 07:51:00,67.0,62.0,30.08,North,359,1.0,3.0,85,0.00,,,0.00,,2013-05-09 11:51:00,
2013-05-09 08:01:00,68.0,63.0,30.08,North,3,1.0,0.0,83,0.00,,,0.00,,2013-05-09 12:01:00,
2013-05-09 08:11:00,70.0,64.0,30.08,North,11,0.0,0.0,81,0.00,,,0.00,,2013-05-09 12:11:00,
2013-05-09 08:22:00,70.0,64.0,30.08,North,11,0.0,0.0,81,0.00,,,0.00,,2013-05-09 12:22:00,
2013-05-09 08:32:00,72.0,65.0,30.09,North,350,0.0,0.0,79,0.00,,,0.00,,2013-05-09 12:32:00,
2013-05-09 08:43:00,72.0,64.0,30.09,NNE,18,3.0,3.0,77,0.00,,,0.00,,2013-05-09 12:43:00,
2013-05-09 08:52:00,72.0,64.0,30.09,NNE,18,3.0,3.0,77,0.00,,,0.00,,2013-05-09 12:52:00,
2013-05-09 09:01:00,73.0,65.0,30.09,NNW,347,0.0,0.0,76,0.00,,,0.00,,2013-05-09 13:01:00,
2013-05-09 09:12:00,73.0,65.0,30.09,NNW,347,0.0,0.0,76,0.00,,,0.00,,2013-05-09 13:12:00,
2013-05-09 09:22:00,76.0,66.0,30.09,NNE,32,0.0,2.0,72,0.00,,,0.00,,2013-05-09 13:22:00,
2013-05-09 09:32:00,77.0,66.0,30.10,West,260,1.0,1.0,69,0.00,,,0.00,,2013-05-09 13:32:00,
2013-05-09 09:42:00,78.0,66.0,30.10,NNE,25,0.0,0.0,66,0.00,,,0.00,,2013-05-09 13:42:00,
2013-05-09 09:52:00,78.0,66.0,30.10,NNE,25,0.0,0.0,66,0.00,,,0.00,,2013-05-09 13:52:00,
2013-05-09 10:02:00,79.0,64.0,30.11,SW,224,2.0,2.0,61,0.00,,,0.00,,2013-05-09 14:02:00,
2013-05-09 10:11:00,79.0,64.0,30.11,SW,224,2.0,2.0,61,0.00,,,0.00,,2013-05-09 14:11:00,
2013-05-09 10:22:00,80.0,63.0,30.11,East,86,1.0,0.0,57,0.00,,,0.00,,2013-05-09 14:22:00,
2013-05-09 10:32:00,81.0,64.0,30.11,SSE,159,5.0,5.0,57,0.00,,,0.00,,2013-05-09 14:32:00,
2013-05-09 10:42:00,81.0,64.0,30.11,SSE,159,5.0,5.0,57,0.00,,,0.00,,2013-05-09 14:42:00,
2013-05-09 10:52:00,81.0,64.0,30.11,SSE,156,2.0,2.0,57,0.00,,,0.00,,2013-05-09 14:52:00,
2013-05-09 11:01:00,81.0,66.0,30.11,WSW,248,6.0,6.0,60,0.00,,,0.00,,2013-05-09 15:01:00,
2013-05-09 11:11:00,81.0,66.0,30.11,WSW,248,6.0,6.0,60,0.00,,,0.00,,2013-05-09 15:11:00,
2013-05-09 11:22:00,81.0,65.0,30.11,SSW,203,5.0,5.0,59,0.00,,,0.00,,2013-05-09 15:22:00,
2013-05-09 11:33:00,82.0,66.0,30.11,SE,135,5.0,5.0,59,0.00,,,0.00,,2013-05-09 15:33:00,
2013-05-09 11:43:00,82.0,67.0,30.11,ESE,117,7.0,11.0,60,0.00,,,0.00,,2013-05-09 15:43:00,
2013-05-09 11:53:00,82.0,67.0,30.11,ESE,117,7.0,11.0,60,0.00,,,0.00,,2013-05-09 15:53:00,
2013-05-09 12:03:00,83.0,67.0,30.11,ENE,73,4.0,4.0,59,0.00,,,0.00,,2013-05-09 16:03:00,
2013-05-09 12:12:00,83.0,67.0,30.11,ENE,73,4.0,4.0,59,0.00,,,0.00,,2013-05-09 16:12:00,
2013-05-09 12:23:00,83.0,68.0,30.12,SSE,162,3.0,4.0,60,0.00,,,0.00,,2013-05-09 16:23:00,
2013-05-09 12:33:00,84.0,68.0,30.12,SSE,160,5.0,5.0,59,0.00,,,0.00,,2013-05-09 16:33:00,
2013-05-09 12:42:00,83.0,68.0,30.12,SE,135,9.0,9.0,61,0.00,,,0.00,,2013-05-09 16:42:00,
2013-05-09 12:53:00,83.0,68.0,30.12,SE,135,9.0,9.0,61,0.00,,,0.00,,2013-05-09 16:53:00,
2013-05-09 13:02:00,82.0,67.0,30.11,ESE,115,7.0,8.0,60,0.00,,,0.00,,2013-05-09 17:02:00,
2013-05-09 13:12:00,82.0,67.0,30.11,ESE,115,7.0,8.0,60,0.00,,,0.00,,2013-05-09 17:12:00,
2013-05-09 13:21:00,83.0,69.0,30.11,ESE,103,5.0,7.0,62,0.00,,,0.00,,2013-05-09 17:21:00,
2013-05-09 13:32:00,83.0,69.0,30.11,East,94,8.0,8.0,63,0.00,,,0.00,,2013-05-09 17:32:00,
2013-05-09 13:42:00,83.0,69.0,30.11,East,94,8.0,8.0,63,0.00,,,0.00,,2013-05-09 17:42:00,
2013-05-09 13:55:00,82.0,69.0,30.11,ESE,115,10.0,10.0,65,0.00,,,0.00,,2013-05-09 17:55:00,
2013-05-09 14:01:00,83.0,70.0,30.11,ESE,108,6.0,7.0,66,0.00,,,0.00,,2013-05-09 18:01:00,
2013-05-09 14:12:00,83.0,70.0,30.11,ESE,108,6.0,7.0,66,0.00,,,0.00,,2013-05-09 18:12:00,
2013-05-09 14:21:00,83.0,70.0,30.11,ESE,108,6.0,7.0,66,0.00,,,0.00,,2013-05-09 18:21:00,
2013-05-09 14:32:00,83.0,70.0,30.11,East,96,6.0,6.0,66,0.00,,,0.00,,2013-05-09 18:32:00,
2013-05-09 14:42:00,83.0,70.0,30.11,East,96,6.0,6.0,66,0.00,,,0.00,,2013-05-09 18:42:00,
2013-05-09 14:52:00,83.0,69.0,30.10,ESE,114,5.0,10.0,63,0.00,,,0.00,,2013-05-09 18:52:00,
2013-05-09 15:01:00,84.0,69.0,30.09,SSE,148,8.0,8.0,60,0.00,,,0.00,,2013-05-09 19:01:00,
2013-05-09 15:12:00,84.0,69.0,30.09,SSE,148,8.0,8.0,60,0.00,,,0.00,,2013-05-09 19:12:00,
2013-05-09 15:21:00,84.0,69.0,30.09,ESE,114,7.0,7.0,61,0.00,,,0.00,,2013-05-09 19:21:00,
2013-05-09 15:32:00,85.0,70.0,30.09,SE,141,6.0,8.0,62,0.00,,,0.00,,2013-05-09 19:32:00,
2013-05-09 15:41:00,84.0,70.0,30.07,SSE,163,6.0,6.0,63,0.00,,,0.00,,2013-05-09 19:41:00,
2013-05-09 15:52:00,84.0,70.0,30.07,SSE,163,6.0,6.0,63,0.00,,,0.00,,2013-05-09 19:52:00,
2013-05-09 16:01:00,85.0,70.0,30.07,ENE,73,5.0,8.0,61,0.00,,,0.00,,2013-05-09 20:01:00,
2013-05-09 16:11:00,85.0,70.0,30.07,ENE,73,5.0,8.0,61,0.00,,,0.00,,2013-05-09 20:11:00,
2013-05-09 16:22:00,85.0,70.0,30.07,ENE,73,5.0,8.0,61,0.00,,,0.00,,2013-05-09 20:22:00,
2013-05-09 16:32:00,84.0,70.0,30.06,ESE,118,6.0,6.0,63,0.00,,,0.00,,2013-05-09 20:32:00,
2013-05-09 16:42:00,84.0,70.0,30.06,NW,314,6.0,6.0,64,0.00,,,0.00,,2013-05-09 20:42:00,
2013-05-09 16:52:00,84.0,70.0,30.06,NW,314,6.0,6.0,64,0.00,,,0.00,,2013-05-09 20:52:00,
2013-05-09 17:02:00,84.0,71.0,30.06,East,101,7.0,7.0,65,0.00,,,0.00,,2013-05-09 21:02:00,
2013-05-09 17:12:00,84.0,71.0,30.06,East,101,7.0,7.0,65,0.00,,,0.00,,2013-05-09 21:12:00,
2013-05-09 17:22:00,83.0,71.0,30.06,East,96,7.0,7.0,67,0.00,,,0.00,,2013-05-09 21:22:00,
2013-05-09 17:32:00,82.0,71.0,30.05,ENE,76,10.0,12.0,69,0.00,,,0.00,,2013-05-09 21:32:00,
2013-05-09 17:43:00,82.0,70.0,30.05,South,186,4.0,4.0,68,0.00,,,0.00,,2013-05-09 21:43:00,
2013-05-09 17:53:00,82.0,70.0,30.05,South,186,4.0,4.0,68,0.00,,,0.00,,2013-05-09 21:53:00,
2013-05-09 18:03:00,82.0,71.0,30.06,SSW,205,8.0,8.0,70,0.00,,,0.00,,2013-05-09 22:03:00,
2013-05-09 18:13:00,82.0,71.0,30.06,ENE,75,5.0,5.0,70,0.00,,,0.00,,2013-05-09 22:13:00,
2013-05-09 18:23:00,82.0,71.0,30.06,ENE,75,5.0,5.0,70,0.00,,,0.00,,2013-05-09 22:23:00,
2013-05-09 18:33:00,80.0,70.0,30.05,ESE,121,8.0,8.0,72,0.00,,,0.00,,2013-05-09 22:33:00,
2013-05-09 18:42:00,80.0,70.0,30.05,SW,221,3.0,3.0,72,0.00,,,0.00,,2013-05-09 22:42:00,
2013-05-09 18:52:00,80.0,70.0,30.05,SW,221,3.0,3.0,72,0.00,,,0.00,,2013-05-09 22:52:00,
2013-05-09 19:02:00,81.0,71.0,30.06,SSW,195,4.0,4.0,72,0.00,,,0.00,,2013-05-09 23:02:00,
2013-05-09 19:12:00,81.0,72.0,30.06,SSE,158,3.0,6.0,74,0.00,,,0.00,,2013-05-09 23:12:00,
2013-05-09 19:22:00,81.0,72.0,30.06,SSE,158,3.0,6.0,74,0.00,,,0.00,,2013-05-09 23:22:00,
2013-05-09 19:32:00,80.0,71.0,30.06,SE,145,4.0,7.0,75,0.00,,,0.00,,2013-05-09 23:32:00,
2013-05-09 19:42:00,80.0,71.0,30.05,ESE,121,4.0,6.0,74,0.00,,,0.00,,2013-05-09 23:42:00,
2013-05-09 19:52:00,80.0,71.0,30.05,ESE,121,4.0,6.0,74,0.00,,,0.00,,2013-05-09 23:52:00,
2013-05-09 20:01:00,80.0,72.0,30.06,SE,125,6.0,6.0,76,0.00,,,0.00,,2013-05-10 00:01:00,
2013-05-09 20:11:00,80.0,72.0,30.07,SSW,195,4.0,4.0,77,0.00,,,0.00,,2013-05-10 00:11:00,
2013-05-09 20:22:00,80.0,72.0,30.07,SSW,195,4.0,4.0,77,0.00,,,0.00,,2013-05-10 00:22:00,
2013-05-09 20:32:00,80.0,72.0,30.08,ESE,111,2.0,0.0,78,0.00,,,0.00,,2013-05-10 00:32:00,
2013-05-09 20:42:00,80.0,72.0,30.07,ESE,121,2.0,4.0,77,0.00,,,0.00,,2013-05-10 00:42:00,
2013-05-09 20:52:00,80.0,72.0,30.07,ESE,121,2.0,4.0,77,0.00,,,0.00,,2013-05-10 00:52:00,
2013-05-09 21:01:00,80.0,72.0,30.07,ESE,121,2.0,4.0,77,0.00,,,0.00,,2013-05-10 01:01:00,
2013-05-09 21:11:00,79.0,72.0,30.07,SSW,198,6.0,6.0,78,0.00,,,0.00,,2013-05-10 01:11:00,
2013-05-09 21:21:00,79.0,72.0,30.07,SSW,198,6.0,6.0,78,0.00,,,0.00,,2013-05-10 01:21:00,
2013-05-09 21:32:00,79.0,72.0,30.07,SSW,198,6.0,6.0,78,0.00,,,0.00,,2013-05-10 01:32:00,
2013-05-09 21:42:00,79.0,72.0,30.07,SSW,198,6.0,6.0,78,0.00,,,0.00,,2013-05-10 01:42:00,
2013-05-09 21:52:00,79.0,72.0,30.07,SSW,198,6.0,6.0,78,0.00,,,0.00,,2013-05-10 01:52:00,